PHMK

Details ICAO PHMK (MKK)
Name MOLOKAI
Region USA (Hawaii)
Timezone Pacific/Honolulu (UTC-10.0)
Plans Departing 44
Arriving 66
Stats Elevation 454 ft / 138 m (AMSL)
Location 21.152926° -157.096500°
Runways 2
Magnetic Variation 9.500° E
Sunrise 2018-05-20 15:50:02 UTC / 2018-05-20 05:50:02 Local
Sunset 2018-05-21 05:02:41 UTC / 2018-05-20 19:02:41 Local
Advertisement - Login to hide

Runways

ID Width Length Bearing (true) Bearing (mag) Surface Threshold Offset Overrun Length
05 100 ft / 30 m 4,503 ft / 1,373 m 60.21° 50.71° Asphalt 0 ft / 0 m 0 ft / 0 m
17 100 ft / 30 m 3,130 ft / 954 m 179.90° 170.40° Asphalt 427 ft / 130 m 0 ft / 0 m
23 100 ft / 30 m 4,503 ft / 1,373 m 240.21° 230.71° Asphalt 0 ft / 0 m 0 ft / 0 m
35 100 ft / 30 m 3,130 ft / 954 m 359.90° 350.40° Asphalt 0 ft / 0 m 0 ft / 0 m

Map

Weather


0- 5 10 15 20 25 30 35+ Temperature / ° C

Clouds and Precipitation
Forecast for 2018-05-20 18:00 UTC. Updated an hour ago

Ground ~20,000 ft ~40,000 ft Winds

METAR

PHMK 201754Z 04013G25KT 10SM CLR 26/19 A3011 RMK AO2 PK WND 05026/1731 SLP198 T02560189 10256 20233 53014

TAF

PHMK 201724Z 2018/2118 05011G19KT P6SM FEW025 SCT050 FM201900 05018G27KT P6SM FEW025 FM210600 05011G19KT P6SM FEW025

Frequencies

Recorded 128.20 MHz ATIS
Ground 121.90 MHz GND
Unicom 125.70 MHz CTAF
Tower 125.70 MHz TWR
Warning: Do not use this data for real-world aviation or navigation. No guarantee of current accuracy is given.